createdAt,value
2019-05-30T00:00:49.946Z,5.50
2019-05-30T00:03:18.404Z,5.30
2019-05-30T00:05:46.803Z,5.50
2019-05-30T00:08:16.760Z,5.63
2019-05-30T00:11:04.819Z,5.63
2019-05-30T00:13:33.326Z,5.60
2019-05-30T00:16:02.901Z,5.73
2019-05-30T00:18:31.653Z,5.17
2019-05-30T00:21:00.813Z,6.00
2019-05-30T00:23:59.846Z,5.93
2019-05-30T00:26:28.550Z,5.80
2019-05-30T00:29:33.297Z,6.80
2019-05-30T00:32:01.798Z,6.27
2019-05-30T00:34:30.230Z,6.90
2019-05-30T00:36:59.739Z,6.27
2019-05-30T00:39:28.382Z,6.27
2019-05-30T00:41:57.867Z,6.30
2019-05-30T00:44:26.784Z,6.00
2019-05-30T00:46:56.149Z,6.17
2019-05-30T00:49:43.948Z,6.43
2019-05-30T00:52:12.358Z,6.30
2019-05-30T00:54:40.867Z,5.60
2019-05-30T00:57:09.349Z,6.30
2019-05-30T00:59:37.782Z,5.93
2019-05-30T01:02:06.998Z,6.63
2019-05-30T01:04:35.589Z,6.87
2019-05-30T01:07:05.120Z,6.23
2019-05-30T01:09:33.715Z,6.13
2019-05-30T01:12:03.098Z,6.33
2019-05-30T01:14:31.655Z,6.47
2019-05-30T01:17:01.070Z,7.23
2019-05-30T01:19:29.668Z,7.17
2019-05-30T01:21:59.205Z,6.90
2019-05-30T01:24:40.354Z,6.97
2019-05-30T01:27:08.799Z,6.37
2019-05-30T01:29:37.380Z,6.40
2019-05-30T01:32:23.777Z,6.23
2019-05-30T01:34:52.265Z,7.30
2019-05-30T01:37:20.719Z,7.43
2019-05-30T01:39:49.308Z,6.53
2019-05-30T01:42:17.842Z,6.87
2019-05-30T01:44:46.765Z,7.20
2019-05-30T01:47:15.498Z,6.43
2019-05-30T01:49:44.016Z,5.80
2019-05-30T01:52:12.561Z,6.47
2019-05-30T01:54:41.012Z,6.03
2019-05-30T01:57:09.504Z,6.90
2019-05-30T01:59:38.146Z,7.37
2019-05-30T02:02:07.227Z,7.57
2019-05-30T02:04:35.848Z,7.17
2019-05-30T02:07:25.208Z,8.10
2019-05-30T02:09:54.473Z,7.23
2019-05-30T02:12:24.934Z,7.80
2019-05-30T02:14:55.427Z,8.00
2019-05-30T02:17:24.808Z,8.60
2019-05-30T02:19:54.147Z,7.47
2019-05-30T02:22:23.406Z,7.97
2019-05-30T02:24:52.666Z,8.37
2019-05-30T02:27:22.866Z,7.83
2019-05-30T02:40:20.021Z,7.17
2019-05-30T02:42:48.437Z,6.70
2019-05-30T02:45:18.485Z,7.27
2019-05-30T02:47:46.912Z,8.23
2019-05-30T02:50:15.513Z,8.43
2019-05-30T02:52:43.940Z,8.13
2019-05-30T02:55:13.482Z,8.27
2019-05-30T02:57:42.306Z,8.47
2019-05-30T03:00:16.604Z,8.20
2019-05-30T03:02:42.445Z,8.20
2019-05-30T03:05:12.768Z,8.07
2019-05-30T03:07:41.363Z,8.10
2019-05-30T03:10:14.374Z,8.97
2019-05-30T03:12:40.495Z,8.83
2019-05-30T03:15:28.314Z,9.73
2019-05-30T03:17:56.749Z,8.93
2019-05-30T03:20:25.256Z,9.63
2019-05-30T03:22:53.734Z,9.30
2019-05-30T03:25:43.238Z,9.47
2019-05-30T03:28:13.549Z,9.40
2019-05-30T03:30:43.503Z,9.70
2019-05-30T03:33:32.442Z,9.60
2019-05-30T03:35:44.153Z,12.13
2019-05-30T03:38:14.872Z,12.30
2019-05-30T03:40:42.938Z,9.50
2019-05-30T03:43:13.199Z,11.73
2019-05-30T03:45:43.546Z,12.57
2019-05-30T03:48:17.614Z,14.10
2019-05-30T03:53:48.222Z,14.17
2019-05-30T04:02:58.976Z,11.53
2019-05-30T04:05:32.475Z,9.70
2019-05-30T04:08:04.266Z,9.57
2019-05-30T04:10:35.808Z,9.57
2019-05-30T04:13:15.264Z,8.07
2019-05-30T04:16:02.621Z,7.00
2019-05-30T04:18:35.268Z,6.47
2019-05-30T04:21:03.687Z,5.40
2019-05-30T04:23:32.109Z,5.20
2019-05-30T04:26:01.170Z,5.33
2019-05-30T04:28:29.738Z,5.17
2019-05-30T04:30:58.211Z,5.53
2019-05-30T04:33:33.271Z,4.63
2019-05-30T04:35:57.347Z,5.00
2019-05-30T04:38:26.082Z,5.50
2019-05-30T04:40:55.213Z,5.33
2019-05-30T04:43:24.249Z,4.73
2019-05-30T04:46:16.000Z,4.50
2019-05-30T04:48:43.609Z,4.13
2019-05-30T04:51:14.438Z,3.97
2019-05-30T04:53:43.287Z,4.00
2019-05-30T04:56:12.639Z,3.93
2019-05-30T04:58:42.868Z,4.37
2019-05-30T05:01:13.114Z,4.00
2019-05-30T05:03:46.290Z,3.47
2019-05-30T05:06:13.841Z,3.80
2019-05-30T05:09:05.272Z,3.90
2019-05-30T05:11:34.225Z,3.70
2019-05-30T05:14:02.685Z,3.60
2019-05-30T05:16:36.126Z,3.80
2019-05-30T05:19:01.345Z,3.93
2019-05-30T05:21:29.859Z,3.70
2019-05-30T05:23:58.356Z,4.20
2019-05-30T05:26:27.272Z,4.27
2019-05-30T05:28:55.833Z,4.50
2019-05-30T05:31:24.760Z,4.63
2019-05-30T05:33:57.318Z,4.80
2019-05-30T05:36:27.669Z,4.80
2019-05-30T05:39:18.081Z,4.33
2019-05-30T05:41:53.785Z,4.50
2019-05-30T05:44:28.657Z,4.57
2019-05-30T05:50:52.866Z,4.63
2019-05-30T05:53:23.296Z,4.80
2019-05-30T05:55:53.352Z,4.67
2019-05-30T05:58:43.826Z,4.60
2019-05-30T06:01:12.617Z,4.50
2019-05-30T06:03:42.872Z,4.80
2019-05-30T06:06:12.058Z,4.73
2019-05-30T06:08:41.350Z,4.50
2019-05-30T06:11:10.608Z,4.27
2019-05-30T06:13:39.924Z,4.40
2019-05-30T06:16:08.641Z,4.83
2019-05-30T06:18:56.660Z,4.53
2019-05-30T06:21:27.478Z,4.37
2019-05-30T06:23:56.132Z,4.50
2019-05-30T06:26:25.922Z,4.37
2019-05-30T06:28:56.155Z,4.23
2019-05-30T06:31:26.580Z,4.73
2019-05-30T06:33:55.772Z,4.30
2019-05-30T06:36:25.311Z,4.10
2019-05-30T06:38:54.548Z,3.70
2019-05-30T06:41:23.695Z,4.40
2019-05-30T06:43:53.602Z,4.20
2019-05-30T06:46:42.992Z,4.90
2019-05-30T06:49:13.065Z,4.20
2019-05-30T06:51:42.463Z,4.30
2019-05-30T06:54:12.097Z,4.70
2019-05-30T06:56:44.838Z,3.97
2019-05-30T06:59:13.562Z,4.40
2019-05-30T07:01:42.627Z,4.03
2019-05-30T07:07:11.713Z,3.97
2019-05-30T07:09:40.512Z,4.30
2019-05-30T07:12:11.869Z,4.40
2019-05-30T07:14:39.138Z,4.00
2019-05-30T07:17:07.590Z,3.87
2019-05-30T07:19:37.856Z,4.50
2019-05-30T07:22:06.237Z,4.23
2019-05-30T07:24:34.763Z,3.83
2019-05-30T07:27:03.183Z,3.77
2019-05-30T07:29:32.150Z,3.93
2019-05-30T07:32:00.756Z,3.97
2019-05-30T07:34:30.184Z,3.97
2019-05-30T07:37:21.694Z,3.93
2019-05-30T07:39:51.697Z,4.03
2019-05-30T07:42:39.574Z,3.80
2019-05-30T07:45:11.195Z,3.50
2019-05-30T07:47:41.736Z,3.80
2019-05-30T07:50:11.772Z,3.70
2019-05-30T07:52:40.864Z,3.80
2019-05-30T07:55:30.931Z,3.83
2019-05-30T07:57:59.501Z,3.70
2019-05-30T08:00:29.247Z,3.87
2019-05-30T08:02:59.335Z,3.63
2019-05-30T08:05:28.654Z,3.40
2019-05-30T08:07:57.207Z,3.43
2019-05-30T08:10:25.927Z,3.73
2019-05-30T08:12:55.073Z,3.20
2019-05-30T08:15:47.891Z,3.07
2019-05-30T08:21:09.369Z,3.33
2019-05-30T08:23:38.386Z,2.93
2019-05-30T08:26:06.981Z,2.97
2019-05-30T08:28:36.412Z,3.00
2019-05-30T08:31:05.250Z,13.23
2019-05-30T08:34:06.656Z,3.53
2019-05-30T08:36:35.177Z,5.53
2019-05-30T08:39:05.404Z,2.97
2019-05-30T08:41:53.259Z,2.50
2019-05-30T08:44:21.722Z,3.10
2019-05-30T08:46:50.232Z,12.83
2019-05-30T08:49:18.720Z,10.47
2019-05-30T08:51:47.212Z,6.20
2019-05-30T08:54:15.683Z,3.37
2019-05-30T08:56:44.152Z,2.93
2019-05-30T08:59:12.606Z,7.70
2019-05-30T09:01:42.110Z,2.40
2019-05-30T09:04:11.497Z,5.57
2019-05-30T09:09:34.599Z,16.60
2019-05-30T09:12:03.567Z,19.57
2019-05-30T09:14:52.003Z,3.90
2019-05-30T09:17:28.600Z,5.97
2019-05-30T09:19:57.287Z,4.70
2019-05-30T09:22:28.641Z,2.80
2019-05-30T09:25:01.289Z,2.10
2019-05-30T09:27:29.726Z,3.40
2019-05-30T09:29:58.213Z,1.87
2019-05-30T09:32:27.934Z,2.10
2019-05-30T09:34:56.591Z,2.67
2019-05-30T09:37:25.648Z,2.43
2019-05-30T09:39:55.035Z,1.80
2019-05-30T09:42:44.666Z,3.73
2019-05-30T09:45:18.127Z,7.33
2019-05-30T09:47:52.500Z,4.13
2019-05-30T09:50:43.902Z,2.00
2019-05-30T09:53:13.077Z,3.77
2019-05-30T09:55:43.297Z,2.33
2019-05-30T09:58:12.473Z,1.80
2019-05-30T10:00:42.951Z,4.00
2019-05-30T10:03:12.051Z,2.43
2019-05-30T10:05:43.294Z,2.80
2019-05-30T10:08:31.892Z,2.10
2019-05-30T10:11:00.310Z,1.70
2019-05-30T10:13:28.761Z,1.60
2019-05-30T10:15:57.424Z,1.50
2019-05-30T10:18:52.880Z,1.60
2019-05-30T10:21:22.686Z,1.80
2019-05-30T10:23:53.599Z,1.80
2019-05-30T10:26:23.526Z,1.50
2019-05-30T10:29:12.903Z,1.70
2019-05-30T10:31:41.362Z,1.47
2019-05-30T10:34:20.942Z,1.40
2019-05-30T10:37:01.531Z,1.37
2019-05-30T10:39:36.276Z,1.43
2019-05-30T10:42:04.791Z,1.57
2019-05-30T10:44:33.278Z,1.33
2019-05-30T10:47:01.722Z,1.37
2019-05-30T10:49:34.678Z,1.80
2019-05-30T10:52:01.042Z,1.60
2019-05-30T10:57:22.399Z,1.43
2019-05-30T10:59:50.940Z,1.40
2019-05-30T11:02:19.525Z,1.47
2019-05-30T11:04:48.979Z,1.53
2019-05-30T11:08:01.240Z,1.30
2019-05-30T11:11:00.527Z,1.40
2019-05-30T11:13:29.099Z,1.40
2019-05-30T11:15:57.568Z,1.47
2019-05-30T11:18:26.072Z,1.27
2019-05-30T11:20:56.248Z,1.50
2019-05-30T11:23:25.048Z,1.60
2019-05-30T11:25:54.680Z,1.30
2019-05-30T11:31:53.207Z,1.50
2019-05-30T11:34:41.153Z,1.50
2019-05-30T11:37:31.133Z,1.50
2019-05-30T11:39:59.728Z,1.43
2019-05-30T11:42:28.154Z,1.50
2019-05-30T11:44:57.530Z,1.50
2019-05-30T11:47:26.334Z,1.60
2019-05-30T11:49:55.744Z,1.50
2019-05-30T11:52:27.412Z,1.50
2019-05-30T11:54:58.081Z,1.40
2019-05-30T11:57:28.901Z,1.43
2019-05-30T12:00:00.194Z,1.40
2019-05-30T12:02:29.294Z,1.50
2019-05-30T12:04:58.637Z,1.83
2019-05-30T12:07:36.372Z,1.90
2019-05-30T12:09:58.956Z,1.20
2019-05-30T12:12:27.891Z,1.20
2019-05-30T12:14:57.350Z,2.77
2019-05-30T12:17:26.973Z,1.50
2019-05-30T12:20:10.970Z,1.50
2019-05-30T12:22:40.204Z,1.40
2019-05-30T12:28:04.765Z,1.30
2019-05-30T12:30:33.714Z,1.30
2019-05-30T12:33:02.631Z,1.30
2019-05-30T12:35:31.259Z,1.57
2019-05-30T12:38:04.506Z,1.50
2019-05-30T12:40:41.364Z,1.40
2019-05-30T12:47:11.448Z,1.60
2019-05-30T12:49:40.576Z,1.60
2019-05-30T12:52:12.615Z,1.50
2019-05-30T12:54:41.334Z,1.70
2019-05-30T12:57:10.841Z,1.50
2019-05-30T12:59:40.538Z,1.80
2019-05-30T13:02:29.012Z,1.70
2019-05-30T13:04:57.540Z,1.40
2019-05-30T13:07:26.481Z,1.60
2019-05-30T13:09:57.121Z,1.40
2019-05-30T13:15:26.127Z,2.63
2019-05-30T13:17:56.030Z,2.23
2019-05-30T13:20:25.825Z,2.53
2019-05-30T13:22:56.186Z,1.47
2019-05-30T13:25:25.428Z,1.60
2019-05-30T13:27:55.755Z,1.47
2019-05-30T13:30:25.173Z,1.37
2019-05-30T13:33:00.835Z,1.40
2019-05-30T13:35:29.475Z,1.30
2019-05-30T13:37:58.965Z,1.50
2019-05-30T13:40:27.609Z,1.43
2019-05-30T13:42:56.191Z,1.47
2019-05-30T13:45:25.070Z,1.53
2019-05-30T13:48:12.834Z,1.20
2019-05-30T13:50:41.983Z,1.40
2019-05-30T13:53:12.321Z,1.50
2019-05-30T13:55:41.337Z,2.10
2019-05-30T13:58:11.475Z,3.30
2019-05-30T14:00:40.738Z,1.40
2019-05-30T14:03:29.757Z,2.43
2019-05-30T14:05:58.185Z,1.40
2019-05-30T14:08:40.757Z,1.57
2019-05-30T14:11:03.043Z,1.70
2019-05-30T14:13:31.516Z,1.57
2019-05-30T14:16:00.913Z,1.47
2019-05-30T14:18:29.566Z,1.87
2019-05-30T14:20:58.008Z,1.40
2019-05-30T14:23:26.622Z,1.47
2019-05-30T14:25:55.742Z,1.40
2019-05-30T14:28:24.945Z,1.40
2019-05-30T14:30:54.534Z,1.50
2019-05-30T14:33:25.148Z,1.53
2019-05-30T14:35:55.401Z,1.20
2019-05-30T14:38:24.448Z,1.50
2019-05-30T14:40:53.539Z,1.50
2019-05-30T14:43:24.067Z,1.40
2019-05-30T14:45:56.775Z,1.30
2019-05-30T14:48:25.527Z,1.50
2019-05-30T14:50:55.285Z,1.40
2019-05-30T14:53:24.325Z,1.23
2019-05-30T14:55:53.313Z,1.33
2019-05-30T14:58:22.969Z,1.40
2019-05-30T15:00:52.252Z,1.20
2019-05-30T15:03:56.708Z,1.30
2019-05-30T15:06:25.848Z,1.20
2019-05-30T15:08:55.374Z,1.40
2019-05-30T15:11:24.604Z,1.10
2019-05-30T15:14:14.684Z,1.10
2019-05-30T15:16:45.024Z,1.20
2019-05-30T15:19:16.462Z,1.30
2019-05-30T15:22:03.949Z,1.23
2019-05-30T15:24:32.523Z,1.10
2019-05-30T15:27:01.029Z,1.30
2019-05-30T15:29:51.091Z,1.20
2019-05-30T15:32:21.759Z,1.20
2019-05-30T15:34:51.558Z,1.17
2019-05-30T15:37:21.358Z,1.10
2019-05-30T15:39:53.275Z,1.20
2019-05-30T15:42:41.237Z,1.10
2019-05-30T15:45:11.922Z,1.20
2019-05-30T15:47:42.265Z,1.37
2019-05-30T15:50:14.145Z,1.37
2019-05-30T16:00:01.553Z,1.30
2019-05-30T16:02:30.994Z,1.20
2019-05-30T16:04:59.393Z,1.37
2019-05-30T16:07:27.908Z,1.60
2019-05-30T16:09:57.990Z,1.30
2019-05-30T16:12:46.595Z,1.30
2019-05-30T16:15:21.749Z,1.30
2019-05-30T16:17:51.557Z,1.10
2019-05-30T16:20:40.882Z,1.10
2019-05-30T16:23:12.576Z,1.17
2019-05-30T16:25:43.817Z,1.10
2019-05-30T16:28:13.656Z,1.20
2019-05-30T16:30:42.639Z,1.23
2019-05-30T16:33:15.999Z,1.30
2019-05-30T16:35:44.564Z,1.30
2019-05-30T16:38:13.987Z,1.27
2019-05-30T16:40:43.552Z,1.30
2019-05-30T16:43:12.610Z,1.17
2019-05-30T16:45:42.601Z,1.10
2019-05-30T16:48:11.356Z,1.20
2019-05-30T16:53:30.119Z,1.43
2019-05-30T16:55:58.600Z,1.30
2019-05-30T16:58:27.065Z,1.10
2019-05-30T17:00:55.858Z,1.30
2019-05-30T17:03:26.075Z,1.20
2019-05-30T17:05:55.483Z,1.33
2019-05-30T17:08:24.884Z,1.30
2019-05-30T17:14:07.058Z,1.20
2019-05-30T17:16:35.495Z,1.43
2019-05-30T17:19:03.989Z,1.30
2019-05-30T17:21:32.428Z,1.50
2019-05-30T17:24:01.056Z,1.60
2019-05-30T17:26:29.517Z,1.33
2019-05-30T17:28:57.968Z,1.87
2019-05-30T17:31:26.567Z,1.67
2019-05-30T17:33:55.589Z,1.67
2019-05-30T17:36:24.591Z,1.40
2019-05-30T17:39:04.492Z,1.50
2019-05-30T17:41:32.948Z,1.20
2019-05-30T17:47:00.124Z,1.73
2019-05-30T17:49:29.931Z,1.27
2019-05-30T17:51:58.549Z,1.50
2019-05-30T17:54:28.021Z,1.50
2019-05-30T17:56:56.603Z,1.37
2019-05-30T17:59:26.368Z,1.40
2019-05-30T18:01:54.903Z,1.50
2019-05-30T18:04:24.469Z,1.33
2019-05-30T18:06:55.088Z,1.70
2019-05-30T18:09:23.410Z,1.60
2019-05-30T18:11:52.448Z,1.47
2019-05-30T18:14:21.111Z,1.20
2019-05-30T18:16:49.815Z,1.30
2019-05-30T18:19:18.421Z,1.33
2019-05-30T18:21:46.920Z,1.20
2019-05-30T18:24:15.387Z,1.20
2019-05-30T18:26:43.828Z,1.30
2019-05-30T18:29:12.274Z,1.33
2019-05-30T18:31:41.645Z,1.20
2019-05-30T18:34:10.124Z,1.10
2019-05-30T18:36:39.640Z,1.37
2019-05-30T18:39:08.812Z,1.10
2019-05-30T18:41:37.537Z,1.23
2019-05-30T18:44:06.313Z,1.40
2019-05-30T18:46:37.775Z,1.50
2019-05-30T18:49:05.006Z,1.40
2019-05-30T18:51:36.709Z,1.33
2019-05-30T18:54:05.323Z,1.57
2019-05-30T18:56:33.810Z,1.10
2019-05-30T18:59:02.236Z,1.40
2019-05-30T19:01:31.826Z,1.40
2019-05-30T19:04:00.350Z,1.30
2019-05-30T19:06:29.966Z,1.53
2019-05-30T19:08:58.651Z,1.30
2019-05-30T19:11:30.974Z,1.40
2019-05-30T19:13:57.241Z,1.20
2019-05-30T19:16:26.332Z,1.30
2019-05-30T19:18:54.933Z,1.47
2019-05-30T19:21:23.424Z,1.70
2019-05-30T19:23:52.254Z,1.30
2019-05-30T19:26:20.719Z,1.27
2019-05-30T19:28:49.267Z,1.20
2019-05-30T19:31:18.025Z,1.37
2019-05-30T19:33:46.504Z,1.40
2019-05-30T19:36:31.102Z,1.33
2019-05-30T19:38:59.555Z,1.37
2019-05-30T19:41:56.671Z,1.60
2019-05-30T19:44:17.923Z,1.90
2019-05-30T19:46:46.429Z,1.40
2019-05-30T19:49:14.884Z,1.30
2019-05-30T19:51:43.371Z,1.73
2019-05-30T19:54:11.965Z,1.50
2019-05-30T19:56:46.438Z,1.50
2019-05-30T19:59:15.037Z,1.30
2019-05-30T20:02:02.821Z,1.50
2019-05-30T20:04:32.210Z,1.50
2019-05-30T20:07:00.764Z,1.60
2019-05-30T20:10:00.912Z,1.80
2019-05-30T20:12:21.664Z,1.80
2019-05-30T20:14:52.495Z,1.60
2019-05-30T20:17:30.022Z,1.70
2019-05-30T20:19:58.120Z,1.80
2019-05-30T20:22:26.914Z,1.67
2019-05-30T20:24:58.893Z,2.00
2019-05-30T20:27:27.685Z,2.00
2019-05-30T20:29:56.150Z,1.83
2019-05-30T20:32:24.987Z,1.90
2019-05-30T20:34:54.109Z,1.90
2019-05-30T20:37:26.180Z,1.80
2019-05-30T20:39:55.701Z,1.60
2019-05-30T20:42:25.492Z,1.87
2019-05-30T20:44:54.823Z,1.73
2019-05-30T20:47:24.639Z,1.80
2019-05-30T20:49:56.128Z,1.80
2019-05-30T20:52:25.567Z,2.00
2019-05-30T20:54:54.056Z,1.70
2019-05-30T20:57:24.425Z,1.90
2019-05-30T20:59:53.479Z,2.00
2019-05-30T21:02:23.062Z,2.00
2019-05-30T21:04:54.165Z,1.90
2019-05-30T21:07:23.577Z,1.90
2019-05-30T21:09:53.665Z,1.90
2019-05-30T21:12:37.035Z,1.80
2019-05-30T21:15:16.289Z,1.77
2019-05-30T21:17:50.388Z,1.93
2019-05-30T21:20:42.106Z,2.00
2019-05-30T21:23:12.747Z,2.20
2019-05-30T21:25:43.071Z,1.70
2019-05-30T21:28:12.148Z,1.97
2019-05-30T21:30:41.793Z,1.73
2019-05-30T21:33:12.093Z,2.10
2019-05-30T21:35:41.790Z,1.77
2019-05-30T21:38:11.847Z,1.90
2019-05-30T21:40:42.375Z,2.13
2019-05-30T21:43:12.465Z,2.00
2019-05-30T21:45:42.530Z,1.67
2019-05-30T21:48:11.593Z,1.80
2019-05-30T21:50:44.455Z,2.17
2019-05-30T21:53:12.060Z,2.40
2019-05-30T21:55:43.984Z,1.87
2019-05-30T21:58:13.325Z,1.83
2019-05-30T22:03:48.690Z,2.13
2019-05-30T22:06:22.827Z,1.97
2019-05-30T22:09:11.808Z,2.60
2019-05-30T22:14:28.534Z,2.20
2019-05-30T22:16:57.287Z,2.33
2019-05-30T22:19:25.837Z,2.33
2019-05-30T22:21:55.802Z,2.20
2019-05-30T22:24:24.730Z,2.10
2019-05-30T22:26:53.873Z,2.10
2019-05-30T22:29:22.931Z,2.40
2019-05-30T22:31:53.574Z,2.10
2019-05-30T22:34:22.752Z,2.00
2019-05-30T22:37:11.891Z,2.07
2019-05-30T22:39:40.927Z,1.87
2019-05-30T22:42:09.844Z,2.00
2019-05-30T22:44:38.899Z,2.00
2019-05-30T22:47:07.483Z,2.20
2019-05-30T22:49:35.951Z,2.17
2019-05-30T22:52:04.768Z,2.13
2019-05-30T22:54:53.718Z,2.30
2019-05-30T22:57:42.632Z,2.10
2019-05-30T23:00:12.279Z,2.20
2019-05-30T23:02:41.164Z,2.10
2019-05-30T23:05:11.084Z,2.50
2019-05-30T23:10:29.832Z,2.20
2019-05-30T23:12:58.274Z,2.20
2019-05-30T23:15:26.708Z,2.37
2019-05-30T23:18:15.975Z,2.53
2019-05-30T23:20:44.732Z,2.13
2019-05-30T23:23:25.880Z,2.40
2019-05-30T23:25:55.413Z,2.20
2019-05-30T23:28:24.909Z,2.07
2019-05-30T23:30:56.104Z,2.33
2019-05-30T23:33:44.006Z,2.27
2019-05-30T23:36:12.801Z,2.33
2019-05-30T23:38:41.737Z,2.40
2019-05-30T23:41:19.025Z,2.23
2019-05-30T23:43:58.071Z,2.20
2019-05-30T23:46:24.947Z,2.50
2019-05-30T23:49:12.731Z,2.30
2019-05-30T23:51:41.687Z,2.43
2019-05-30T23:54:11.196Z,2.30
2019-05-30T23:56:42.395Z,2.50
2019-05-30T23:59:11.336Z,2.60
